createdAt,value
2019-03-23T00:00:24.827Z,9.44
2019-03-23T00:02:54.078Z,9.38
2019-03-23T00:05:23.221Z,9.32
2019-03-23T00:07:52.391Z,9.32
2019-03-23T00:10:21.537Z,9.32
2019-03-23T00:12:50.737Z,9.33
2019-03-23T00:15:19.985Z,9.31
2019-03-23T00:17:49.277Z,9.29
2019-03-23T00:20:18.474Z,9.28
2019-03-23T00:22:47.661Z,9.28
2019-03-23T00:25:16.915Z,9.28
2019-03-23T00:27:46.139Z,9.25
2019-03-23T00:30:15.580Z,9.22
2019-03-23T00:32:44.722Z,9.21
2019-03-23T00:35:13.941Z,9.19
2019-03-23T00:37:43.049Z,9.16
2019-03-23T00:40:12.360Z,9.16
2019-03-23T00:42:41.571Z,9.13
2019-03-23T00:45:11.345Z,9.08
2019-03-23T00:47:40.494Z,9.08
2019-03-23T00:50:10.002Z,9.02
2019-03-23T00:52:39.203Z,9.00
2019-03-23T00:55:08.822Z,8.94
2019-03-23T00:57:38.955Z,8.92
2019-03-23T01:00:13.489Z,8.90
2019-03-23T01:02:42.699Z,8.86
2019-03-23T01:05:12.794Z,8.83
2019-03-23T01:07:42.060Z,8.78
2019-03-23T01:10:12.378Z,8.76
2019-03-23T01:12:41.580Z,8.70
2019-03-23T01:15:12.618Z,8.74
2019-03-23T01:17:41.827Z,8.70
2019-03-23T01:20:12.550Z,8.65
2019-03-23T01:22:41.873Z,8.57
2019-03-23T01:25:11.812Z,8.50
2019-03-23T01:27:41.049Z,8.55
2019-03-23T01:30:12.685Z,8.50
2019-03-23T01:32:41.812Z,8.52
2019-03-23T01:35:11.883Z,8.48
2019-03-23T01:37:41.118Z,8.47
2019-03-23T01:40:10.637Z,8.45
2019-03-23T01:42:39.765Z,8.40
2019-03-23T01:45:11.590Z,8.39
2019-03-23T01:47:40.793Z,8.41
2019-03-23T01:50:11.521Z,8.35
2019-03-23T01:52:40.769Z,8.38
2019-03-23T01:55:10.791Z,8.35
2019-03-23T01:57:39.867Z,8.30
2019-03-23T02:00:11.687Z,8.27
2019-03-23T02:02:40.937Z,8.25
2019-03-23T02:05:10.530Z,8.23
2019-03-23T02:07:39.772Z,8.22
2019-03-23T02:10:10.770Z,8.15
2019-03-23T02:12:39.976Z,8.15
2019-03-23T02:15:11.221Z,8.12
2019-03-23T02:17:40.421Z,8.14
2019-03-23T02:20:11.652Z,8.13
2019-03-23T02:22:40.887Z,8.13
2019-03-23T02:25:10.497Z,8.12
2019-03-23T02:27:39.710Z,8.12
2019-03-23T02:30:11.045Z,8.13
2019-03-23T02:32:40.172Z,8.14
2019-03-23T02:35:09.590Z,8.15
2019-03-23T02:37:38.838Z,8.12
2019-03-23T02:40:10.130Z,8.09
2019-03-23T02:42:39.272Z,8.08
2019-03-23T02:45:10.926Z,8.05
2019-03-23T02:47:40.152Z,8.00
2019-03-23T02:50:10.495Z,8.01
2019-03-23T02:52:39.790Z,8.00
2019-03-23T02:55:10.977Z,8.03
2019-03-23T02:57:40.486Z,8.02
2019-03-23T03:00:14.669Z,7.98
2019-03-23T03:02:43.808Z,7.92
2019-03-23T03:05:13.718Z,7.87
2019-03-23T03:07:43.948Z,7.71
2019-03-23T03:10:22.223Z,7.71
2019-03-23T03:12:51.322Z,7.68
2019-03-23T03:15:20.583Z,7.62
2019-03-23T03:17:49.719Z,7.59
2019-03-23T03:20:18.961Z,7.60
2019-03-23T03:22:48.030Z,7.55
2019-03-23T03:25:17.149Z,7.53
2019-03-23T03:27:46.254Z,7.53
2019-03-23T03:30:15.567Z,7.48
2019-03-23T03:32:44.629Z,7.44
2019-03-23T03:35:13.881Z,7.41
2019-03-23T03:37:56.035Z,7.41
2019-03-23T03:40:14.238Z,7.41
2019-03-23T03:42:43.426Z,7.39
2019-03-23T03:45:15.550Z,7.37
2019-03-23T03:47:44.678Z,7.33
2019-03-23T03:50:14.019Z,7.35
2019-03-23T03:52:43.102Z,7.28
2019-03-23T03:55:12.294Z,7.26
2019-03-23T03:57:41.619Z,7.26
2019-03-23T04:00:11.481Z,7.26
2019-03-23T04:02:41.633Z,7.21
2019-03-23T04:05:11.084Z,7.21
2019-03-23T04:07:40.288Z,7.16
2019-03-23T04:10:10.605Z,7.14
2019-03-23T04:12:39.835Z,7.12
2019-03-23T04:15:10.626Z,7.09
2019-03-23T04:17:40.000Z,7.06
2019-03-23T04:20:10.548Z,7.06
2019-03-23T04:22:39.768Z,7.03
2019-03-23T04:25:10.634Z,7.04
2019-03-23T04:27:39.962Z,7.06
2019-03-23T04:30:11.171Z,7.04
2019-03-23T04:32:40.455Z,7.06
2019-03-23T04:35:10.287Z,7.06
2019-03-23T04:37:39.444Z,7.06
2019-03-23T04:40:11.016Z,7.15
2019-03-23T04:42:40.249Z,7.15
2019-03-23T04:45:10.663Z,7.19
2019-03-23T04:47:39.950Z,7.21
2019-03-23T04:50:11.384Z,7.22
2019-03-23T04:52:40.581Z,7.25
2019-03-23T04:55:11.831Z,7.30
2019-03-23T04:57:41.642Z,7.30
2019-03-23T05:00:16.086Z,7.33
2019-03-23T05:02:45.295Z,7.32
2019-03-23T05:05:14.543Z,7.38
2019-03-23T05:07:43.735Z,7.40
2019-03-23T05:10:13.347Z,7.47
2019-03-23T05:12:42.652Z,7.47
2019-03-23T05:15:11.852Z,7.53
2019-03-23T05:17:41.039Z,7.62
2019-03-23T05:20:11.415Z,7.61
2019-03-23T05:22:40.613Z,7.61
2019-03-23T05:25:12.730Z,7.53
2019-03-23T05:27:41.883Z,7.55
2019-03-23T05:30:11.089Z,7.63
2019-03-23T05:32:40.228Z,7.76
2019-03-23T05:35:09.482Z,7.79
2019-03-23T05:37:38.624Z,7.82
2019-03-23T05:40:08.027Z,7.83
2019-03-23T05:42:37.272Z,7.83
2019-03-23T05:45:07.369Z,7.94
2019-03-23T05:47:36.510Z,8.02
2019-03-23T05:50:09.369Z,7.96
2019-03-23T05:52:38.577Z,8.09
2019-03-23T05:55:08.085Z,8.14
2019-03-23T05:57:37.267Z,8.28
2019-03-23T06:00:09.565Z,8.25
2019-03-23T06:02:38.843Z,8.37
2019-03-23T06:05:11.975Z,8.53
2019-03-23T06:07:41.077Z,8.67
2019-03-23T06:10:10.282Z,8.61
2019-03-23T06:12:39.370Z,8.72
2019-03-23T06:15:08.775Z,8.91
2019-03-23T06:17:37.907Z,8.98
2019-03-23T06:20:08.451Z,8.95
2019-03-23T06:22:37.568Z,9.14
2019-03-23T06:25:07.173Z,9.20
2019-03-23T06:27:36.415Z,9.29
2019-03-23T06:30:08.415Z,9.47
2019-03-23T06:32:37.626Z,9.60
2019-03-23T06:35:08.474Z,9.55
2019-03-23T06:37:37.681Z,9.72
2019-03-23T06:40:09.558Z,9.92
2019-03-23T06:42:38.837Z,9.73
2019-03-23T06:45:10.213Z,9.87
2019-03-23T06:47:39.369Z,10.00
2019-03-23T06:50:10.640Z,10.21
2019-03-23T06:52:39.712Z,10.14
2019-03-23T06:55:09.727Z,10.18
2019-03-23T06:57:38.996Z,10.62
2019-03-23T07:00:11.194Z,10.69
2019-03-23T07:02:40.420Z,10.88
2019-03-23T07:05:10.326Z,10.30
2019-03-23T07:07:39.854Z,10.15
2019-03-23T07:10:11.985Z,10.59
2019-03-23T07:12:41.231Z,11.07
2019-03-23T07:15:19.958Z,11.25
2019-03-23T07:17:45.415Z,11.41
2019-03-23T07:20:15.314Z,10.80
2019-03-23T07:22:44.626Z,11.08
2019-03-23T07:25:14.823Z,11.06
2019-03-23T07:27:44.150Z,11.35
2019-03-23T07:30:17.322Z,11.27
2019-03-23T07:32:46.537Z,11.54
2019-03-23T07:35:16.385Z,11.68
2019-03-23T07:37:45.543Z,11.39
2019-03-23T07:40:15.217Z,11.78
2019-03-23T07:42:44.407Z,12.17
2019-03-23T07:45:15.009Z,12.40
2019-03-23T07:47:44.176Z,12.91
2019-03-23T07:50:14.634Z,12.78
2019-03-23T07:52:43.831Z,13.29
2019-03-23T07:55:17.099Z,13.52
2019-03-23T07:57:46.857Z,14.05
2019-03-23T08:00:21.290Z,14.39
2019-03-23T08:02:50.580Z,13.66
2019-03-23T08:05:26.141Z,13.43
2019-03-23T08:07:55.282Z,13.75
2019-03-23T08:10:33.266Z,14.27
2019-03-23T08:13:02.917Z,14.56
2019-03-23T08:15:32.291Z,14.71
2019-03-23T08:18:01.557Z,14.81
2019-03-23T08:20:30.757Z,15.18
2019-03-23T08:22:59.907Z,14.99
2019-03-23T08:25:29.222Z,15.31
2019-03-23T08:27:58.460Z,15.30
2019-03-23T08:30:27.604Z,15.73
2019-03-23T08:32:56.847Z,15.76
2019-03-23T08:35:26.069Z,15.69
2019-03-23T08:37:55.292Z,16.10
2019-03-23T08:40:24.483Z,16.73
2019-03-23T08:42:53.776Z,16.34
2019-03-23T08:45:23.202Z,16.74
2019-03-23T08:47:52.390Z,16.65
2019-03-23T08:50:21.462Z,17.13
2019-03-23T08:52:50.662Z,17.49
2019-03-23T08:55:21.894Z,17.21
2019-03-23T08:57:50.762Z,17.25
2019-03-23T09:00:20.015Z,17.23
2019-03-23T09:02:49.197Z,16.96
2019-03-23T09:05:18.403Z,17.30
2019-03-23T09:07:47.627Z,18.29
2019-03-23T09:10:16.931Z,18.43
2019-03-23T09:12:46.152Z,18.42
2019-03-23T09:15:15.369Z,18.31
2019-03-23T09:17:44.623Z,18.63
2019-03-23T09:20:14.126Z,18.65
2019-03-23T09:22:43.283Z,18.67
2019-03-23T09:25:12.546Z,18.92
2019-03-23T09:27:41.710Z,18.94
2019-03-23T09:30:12.598Z,19.33
2019-03-23T09:32:41.785Z,19.52
2019-03-23T09:35:10.989Z,20.03
2019-03-23T09:37:40.222Z,20.18
2019-03-23T09:40:11.042Z,20.45
2019-03-23T09:42:40.585Z,19.85
2019-03-23T09:45:10.033Z,20.56
2019-03-23T09:47:39.275Z,20.50
2019-03-23T09:50:10.680Z,19.79
2019-03-23T09:52:39.906Z,19.74
2019-03-23T09:55:09.474Z,19.88
2019-03-23T09:57:40.055Z,19.97
2019-03-23T10:00:11.908Z,20.52
2019-03-23T10:02:41.162Z,20.58
2019-03-23T10:05:10.365Z,20.38
2019-03-23T10:07:39.597Z,20.38
2019-03-23T10:10:09.154Z,21.10
2019-03-23T10:12:38.388Z,21.31
2019-03-23T10:15:08.805Z,21.22
2019-03-23T10:17:38.055Z,21.46
2019-03-23T10:20:07.958Z,21.77
2019-03-23T10:22:37.248Z,21.72
2019-03-23T10:25:08.871Z,21.25
2019-03-23T10:27:38.094Z,21.55
2019-03-23T10:30:09.732Z,21.29
2019-03-23T10:32:39.023Z,20.95
2019-03-23T10:35:10.022Z,21.80
2019-03-23T10:37:39.237Z,22.22
2019-03-23T10:40:10.777Z,22.62
2019-03-23T10:42:39.994Z,22.89
2019-03-23T10:45:10.413Z,23.10
2019-03-23T10:47:39.776Z,22.20
2019-03-23T10:50:09.665Z,22.36
2019-03-23T10:52:38.820Z,22.04
2019-03-23T10:55:08.308Z,22.52
2019-03-23T10:57:37.559Z,22.68
2019-03-23T11:00:12.032Z,23.10
2019-03-23T11:02:41.279Z,23.47
2019-03-23T11:05:11.022Z,23.44
2019-03-23T11:07:40.284Z,23.22
2019-03-23T11:10:12.396Z,23.67
2019-03-23T11:12:41.616Z,23.20
2019-03-23T11:15:11.451Z,22.90
2019-03-23T11:17:40.596Z,23.44
2019-03-23T11:20:16.527Z,24.40
2019-03-23T11:22:45.946Z,24.41
2019-03-23T11:25:15.727Z,24.23
2019-03-23T11:27:45.035Z,24.21
2019-03-23T11:30:15.198Z,24.59
2019-03-23T11:32:44.554Z,24.64
2019-03-23T11:35:14.375Z,24.60
2019-03-23T11:37:43.772Z,24.32
2019-03-23T11:40:13.287Z,23.86
2019-03-23T11:42:49.860Z,24.03
2019-03-23T11:45:14.144Z,24.19
2019-03-23T11:47:43.365Z,24.57
2019-03-23T11:50:13.197Z,24.92
2019-03-23T11:52:42.450Z,24.69
2019-03-23T11:55:12.316Z,24.45
2019-03-23T11:57:41.538Z,25.02
2019-03-23T12:00:14.070Z,25.35
2019-03-23T12:02:43.334Z,25.90
2019-03-23T12:05:12.895Z,25.79
2019-03-23T12:07:42.267Z,25.77
2019-03-23T12:10:13.591Z,25.39
2019-03-23T12:12:42.827Z,24.99
2019-03-23T12:15:13.268Z,24.47
2019-03-23T12:17:42.525Z,24.68
2019-03-23T12:20:11.951Z,25.00
2019-03-23T12:22:41.225Z,25.21
2019-03-23T12:25:10.962Z,25.08
2019-03-23T12:27:40.280Z,25.22
2019-03-23T12:30:18.866Z,25.95
2019-03-23T12:32:49.558Z,25.14
2019-03-23T12:35:18.719Z,24.95
2019-03-23T12:37:47.983Z,25.26
2019-03-23T12:40:17.511Z,25.44
2019-03-23T12:42:46.651Z,26.33
2019-03-23T12:45:16.283Z,26.76
2019-03-23T12:47:45.505Z,26.86
2019-03-23T12:50:15.097Z,26.55
2019-03-23T12:52:44.297Z,26.69
2019-03-23T12:55:13.788Z,26.87
2019-03-23T12:57:43.005Z,26.47
2019-03-23T13:00:14.880Z,26.06
2019-03-23T13:02:44.290Z,24.53
2019-03-23T13:05:13.698Z,25.44
2019-03-23T13:07:42.952Z,25.91
2019-03-23T13:10:13.673Z,25.92
2019-03-23T13:12:42.979Z,25.96
2019-03-23T13:15:15.140Z,26.55
2019-03-23T13:17:44.422Z,26.19
2019-03-23T13:20:14.569Z,26.80
2019-03-23T13:22:44.117Z,26.95
2019-03-23T13:25:13.335Z,26.58
2019-03-23T13:27:42.538Z,26.39
2019-03-23T13:30:14.685Z,26.32
2019-03-23T13:32:43.916Z,27.09
2019-03-23T13:35:13.208Z,27.40
2019-03-23T13:37:42.558Z,26.98
2019-03-23T13:40:12.977Z,26.95
2019-03-23T13:42:42.273Z,26.52
2019-03-23T13:45:12.799Z,27.03
2019-03-23T13:47:42.072Z,26.53
2019-03-23T13:50:12.951Z,26.88
2019-03-23T13:52:42.273Z,27.74
2019-03-23T13:55:26.682Z,27.09
2019-03-23T13:57:56.064Z,27.52
2019-03-23T14:00:25.369Z,27.21
2019-03-23T14:02:54.564Z,27.20
2019-03-23T14:05:24.180Z,27.74
2019-03-23T14:07:53.537Z,27.97
2019-03-23T14:10:23.044Z,27.52
2019-03-23T14:12:52.321Z,27.33
2019-03-23T14:15:21.596Z,27.90
2019-03-23T14:17:50.735Z,27.40
2019-03-23T14:20:20.063Z,27.37
2019-03-23T14:22:49.293Z,27.91
2019-03-23T14:25:18.507Z,27.08
2019-03-23T14:27:47.684Z,26.73
2019-03-23T14:30:16.885Z,26.83
2019-03-23T14:32:46.199Z,27.16
2019-03-23T14:35:15.406Z,27.54
2019-03-23T14:37:44.720Z,27.90
2019-03-23T14:40:14.519Z,28.42
2019-03-23T14:42:43.707Z,28.21
2019-03-23T14:45:13.301Z,28.27
2019-03-23T14:47:42.552Z,27.74
2019-03-23T14:50:11.964Z,27.32
2019-03-23T14:52:41.118Z,27.33
2019-03-23T14:55:10.744Z,27.03
2019-03-23T14:57:40.569Z,26.62
2019-03-23T15:00:10.908Z,27.25
2019-03-23T15:02:40.275Z,26.99
2019-03-23T15:05:09.617Z,27.38
2019-03-23T15:07:38.764Z,26.79
2019-03-23T15:10:09.872Z,27.27
2019-03-23T15:12:39.177Z,28.15
2019-03-23T15:15:08.719Z,28.11
2019-03-23T15:17:37.853Z,28.39
2019-03-23T15:20:08.189Z,27.71
2019-03-23T15:22:37.398Z,27.23
2019-03-23T15:25:07.118Z,27.97
2019-03-23T15:27:36.351Z,27.64
2019-03-23T15:30:09.864Z,28.11
2019-03-23T15:32:40.525Z,27.64
2019-03-23T15:35:10.083Z,28.58
2019-03-23T15:37:39.223Z,29.19
2019-03-23T15:40:09.333Z,29.80
2019-03-23T15:42:38.561Z,29.20
2019-03-23T15:45:09.567Z,28.08
2019-03-23T15:47:38.799Z,28.07
2019-03-23T15:50:09.226Z,27.92
2019-03-23T15:52:38.458Z,27.36
2019-03-23T15:55:08.162Z,27.23
2019-03-23T15:57:37.497Z,26.98
2019-03-23T16:00:09.288Z,27.29
2019-03-23T16:02:38.593Z,27.58
2019-03-23T16:05:08.232Z,27.02
2019-03-23T16:07:37.446Z,26.22
2019-03-23T16:10:08.976Z,26.27
2019-03-23T16:12:38.198Z,26.40
2019-03-23T16:15:12.167Z,25.62
2019-03-23T16:17:41.361Z,25.51
2019-03-23T16:20:13.494Z,25.67
2019-03-23T16:22:42.844Z,24.99
2019-03-23T16:25:12.549Z,25.01
2019-03-23T16:27:41.786Z,24.95
2019-03-23T16:30:12.761Z,24.60
2019-03-23T16:32:41.916Z,23.78
2019-03-23T16:35:13.087Z,22.96
2019-03-23T16:37:42.437Z,22.36
2019-03-23T16:40:12.263Z,22.04
2019-03-23T16:42:45.577Z,21.50
2019-03-23T16:45:13.290Z,20.67
2019-03-23T16:47:42.529Z,20.20
2019-03-23T16:50:12.383Z,19.89
2019-03-23T16:52:41.603Z,19.57
2019-03-23T16:55:11.317Z,19.33
2019-03-23T16:57:43.235Z,19.14
2019-03-23T17:00:14.469Z,18.92
2019-03-23T17:02:43.712Z,18.79
2019-03-23T17:05:13.471Z,18.65
2019-03-23T17:07:42.732Z,18.48
2019-03-23T17:10:12.259Z,18.34
2019-03-23T17:12:41.545Z,18.27
2019-03-23T17:15:12.090Z,18.15
2019-03-23T17:17:41.243Z,18.06
2019-03-23T17:20:10.927Z,17.99
2019-03-23T17:22:40.233Z,17.91
2019-03-23T17:25:10.210Z,17.82
2019-03-23T17:27:39.464Z,17.74
2019-03-23T17:30:09.802Z,17.70
2019-03-23T17:32:39.475Z,17.61
2019-03-23T17:35:08.859Z,17.60
2019-03-23T17:37:38.044Z,17.52
2019-03-23T17:40:08.367Z,17.43
2019-03-23T17:42:37.634Z,17.36
2019-03-23T17:45:10.068Z,17.30
2019-03-23T17:47:39.365Z,17.27
2019-03-23T17:50:09.135Z,17.23
2019-03-23T17:52:38.289Z,17.17
2019-03-23T17:55:07.933Z,17.08
2019-03-23T17:57:37.295Z,17.04
2019-03-23T18:00:08.279Z,16.99
2019-03-23T18:02:38.227Z,16.92
2019-03-23T18:05:08.505Z,16.85
2019-03-23T18:07:37.709Z,16.81
2019-03-23T18:10:08.008Z,16.77
2019-03-23T18:12:37.246Z,16.68
2019-03-23T18:15:08.742Z,16.63
2019-03-23T18:17:38.038Z,16.65
2019-03-23T18:20:08.468Z,16.57
2019-03-23T18:22:37.686Z,16.47
2019-03-23T18:25:08.289Z,16.44
2019-03-23T18:27:37.476Z,16.43
2019-03-23T18:30:15.421Z,16.42
2019-03-23T18:32:44.756Z,16.36
2019-03-23T18:35:13.965Z,16.33
2019-03-23T18:37:43.304Z,16.29
2019-03-23T18:40:12.686Z,16.22
2019-03-23T18:42:41.927Z,16.15
2019-03-23T18:45:11.417Z,16.14
2019-03-23T18:47:40.587Z,16.07
2019-03-23T18:50:09.904Z,16.00
2019-03-23T18:52:39.152Z,15.96
2019-03-23T18:55:08.813Z,15.96
2019-03-23T18:57:38.451Z,15.94
2019-03-23T19:00:09.253Z,15.93
2019-03-23T19:02:38.584Z,15.87
2019-03-23T19:05:08.191Z,15.80
2019-03-23T19:07:37.366Z,15.72
2019-03-23T19:10:07.838Z,15.71
2019-03-23T19:12:37.046Z,15.69
2019-03-23T19:15:07.574Z,15.71
2019-03-23T19:17:36.847Z,15.64
2019-03-23T19:20:08.956Z,15.61
2019-03-23T19:22:38.947Z,15.53
2019-03-23T19:25:17.004Z,15.45
2019-03-23T19:27:39.481Z,15.45
2019-03-23T19:30:09.269Z,15.40
2019-03-23T19:32:38.718Z,15.36
2019-03-23T19:35:08.671Z,15.32
2019-03-23T19:37:38.982Z,15.26
2019-03-23T19:40:09.202Z,15.24
2019-03-23T19:42:38.496Z,15.25
2019-03-23T19:45:08.235Z,15.17
2019-03-23T19:47:37.493Z,15.11
2019-03-23T19:50:08.323Z,15.07
2019-03-23T19:52:37.625Z,15.03
2019-03-23T19:55:10.311Z,14.96
2019-03-23T19:57:39.555Z,14.93
2019-03-23T20:00:11.023Z,14.85
2019-03-23T20:02:40.286Z,14.75
2019-03-23T20:05:09.863Z,14.66
2019-03-23T20:07:39.215Z,14.60
2019-03-23T20:10:10.274Z,14.53
2019-03-23T20:12:39.620Z,14.45
2019-03-23T20:15:09.413Z,14.38
2019-03-23T20:17:38.990Z,14.33
2019-03-23T20:20:09.739Z,14.27
2019-03-23T20:22:39.133Z,14.23
2019-03-23T20:25:08.985Z,14.13
2019-03-23T20:27:38.329Z,14.08
2019-03-23T20:30:11.545Z,14.03
2019-03-23T20:32:40.853Z,14.02
2019-03-23T20:35:10.654Z,13.97
2019-03-23T20:37:39.974Z,13.95
2019-03-23T20:40:10.185Z,13.93
2019-03-23T20:42:39.689Z,13.87
2019-03-23T20:45:10.512Z,13.80
2019-03-23T20:47:41.484Z,13.81
2019-03-23T20:50:10.822Z,13.78
2019-03-23T20:52:42.098Z,13.74
2019-03-23T20:55:17.070Z,13.73
2019-03-23T20:57:46.627Z,13.68
2019-03-23T21:00:16.136Z,13.66
2019-03-23T21:02:45.449Z,13.58
2019-03-23T21:05:14.817Z,13.53
2019-03-23T21:07:44.261Z,13.48
2019-03-23T21:10:13.809Z,13.43
2019-03-23T21:12:43.021Z,13.40
2019-03-23T21:15:12.349Z,13.34
2019-03-23T21:17:51.044Z,13.34
2019-03-23T21:20:12.836Z,13.31
2019-03-23T21:22:41.983Z,13.26
2019-03-23T21:25:11.452Z,13.21
2019-03-23T21:27:40.607Z,13.17
2019-03-23T21:30:13.300Z,13.15
2019-03-23T21:32:42.599Z,13.11
2019-03-23T21:35:12.430Z,13.10
2019-03-23T21:37:41.720Z,13.06
2019-03-23T21:40:11.002Z,13.03
2019-03-23T21:42:40.229Z,12.99
2019-03-23T21:45:09.930Z,12.95
2019-03-23T21:47:39.182Z,12.89
2019-03-23T21:50:09.598Z,12.81
2019-03-23T21:52:39.022Z,12.74
2019-03-23T21:55:09.201Z,12.62
2019-03-23T21:57:38.585Z,12.53
2019-03-23T22:00:09.011Z,12.44
2019-03-23T22:02:38.303Z,12.37
2019-03-23T22:05:07.978Z,12.30
2019-03-23T22:07:37.218Z,12.25
2019-03-23T22:10:08.298Z,12.22
2019-03-23T22:12:37.808Z,12.23
2019-03-23T22:15:08.646Z,12.25
2019-03-23T22:17:38.009Z,12.20
2019-03-23T22:20:08.773Z,11.99
2019-03-23T22:22:38.260Z,11.81
2019-03-23T22:25:08.217Z,11.67
2019-03-23T22:27:38.427Z,11.58
2019-03-23T22:30:14.694Z,11.50
2019-03-23T22:32:44.050Z,11.43
2019-03-23T22:35:13.812Z,11.42
2019-03-23T22:37:43.069Z,11.41
2019-03-23T22:40:13.304Z,11.41
2019-03-23T22:42:42.658Z,11.40
2019-03-23T22:45:13.198Z,11.36
2019-03-23T22:47:42.669Z,11.34
2019-03-23T22:50:11.898Z,11.33
2019-03-23T22:52:41.178Z,11.31
2019-03-23T22:55:10.411Z,11.27
2019-03-23T22:57:39.628Z,11.25
2019-03-23T23:00:13.491Z,11.22
2019-03-23T23:02:42.785Z,11.14
2019-03-23T23:05:12.085Z,10.89
2019-03-23T23:07:42.030Z,10.61
2019-03-23T23:10:11.466Z,10.45
2019-03-23T23:12:40.760Z,10.38
2019-03-23T23:15:10.305Z,10.32
2019-03-23T23:17:39.644Z,10.36
2019-03-23T23:20:09.370Z,10.34
2019-03-23T23:22:38.691Z,10.32
2019-03-23T23:25:08.380Z,10.28
2019-03-23T23:27:37.599Z,10.26
2019-03-23T23:30:11.217Z,10.21
2019-03-23T23:32:40.551Z,10.16
2019-03-23T23:35:10.471Z,10.15
2019-03-23T23:37:39.769Z,10.15
2019-03-23T23:40:10.056Z,10.15
2019-03-23T23:42:39.315Z,10.13
2019-03-23T23:45:15.247Z,10.11
2019-03-23T23:47:40.310Z,10.07
2019-03-23T23:50:10.224Z,10.02
2019-03-23T23:52:39.511Z,9.86
2019-03-23T23:55:09.056Z,9.74
2019-03-23T23:57:38.347Z,9.72
